58.0°F
Current conditions from King Hill
Updated every 5 minutes
 
  Tuesday June 19, 2018

Observations for Westford

Westford

44° 37' 39"N, 73° 02' 29"W, Elevation 850 ft.
Eastern Time

Hourly observations for the last 72 hours

Date Time Temperature (°F) Humi-
dity

(%)
Wind
(mph)
Pressure Rain (in)
Air Dew 6 Hour 1 Hr 3 Hr 6 Hr Day
Alt
(in)
Sea
Level

(mb)
Max Min
19 06:00 58.0 56.9 96 NW 1 G 12 29.75 1007.6 0.01
19 05:00 58.5 57.4 96 WNW 0 G 15 29.72 1006.4 0.01 0.01
19 04:00 59.3 58.2 96 NW 0 G 10 29.70 1005.7 0.01
19 03:00 62.4 61.2 96 NW 1 G 12 29.67 1004.9 0.01 0.01
19 02:00 64.1 62.9 70.9 64.1 96 NNE 0 G 1 29.65 1004.1 0.49 0.00
19 01:00 64.9 63.7 96 NW 0 G 8 29.65 1004.1 0.00
19 00:00 64.8 63.6 96 Calm 29.63 1003.4 1.41
18 23:00 65.8 64.3 95 Calm 29.62 1002.9 0.07 0.49 1.41
18 22:00 69.9 68.7 96 SW 4 G 12 29.58 1001.6 0.08 1.34
18 21:00 70.4 68.9 95 W 2 G 11 29.58 1001.6 0.34 1.26
18 20:00 70.9 69.1 75.5 70.9 94 W 1 G 12 29.57 1001.4 0.22 0.30 0.74 0.92
18 19:00 72.2 70.1 93 W 1 G 8 29.58 1001.6 0.08 0.70
18 18:00 72.9 70.1 91 SSW 1 G 14 29.58 1001.7 0.62
18 17:00 75.4 72.3 90 WSW 0 G 4 29.58 1001.8 0.44 0.62
18 16:00 74.9 72.7 93 WSW 1 G 10 29.61 1002.8 0.04 0.62
18 15:00 71.4 69.3 93 SW 3 G 14 29.64 1003.8 0.40 0.58
18 14:00 72.3 70.2 79.7 72.1 93 Calm 29.66 1004.5 0.17 0.18 0.18 0.18
18 13:00 73.9 69.1 85 NE 0 G 2 29.70 1005.8 0.01 0.01
18 12:00 77.2 68.3 74 SW 5 G 12 29.70 1005.9 0.00
18 11:00 77.1 67.4 72 SSW 2 G 11 29.72 1006.4 0.00
18 10:00 77.7 69.2 75 WSW 0 G 9 29.74 1007.1 0.00
18 09:00 75.6 65.5 71 SSW 2 G 11 29.77 1008.0 0.00
18 08:00 72.7 63.6 72.7 70.5 73 SSW 3 G 11 29.77 1008.1 0.00
18 07:00 71.2 61.3 71 SSW 2 G 12 29.78 1008.4 0.00
18 06:00 70.7 60.0 69 SSW 1 G 13 29.79 1008.9 0.00
18 05:00 70.8 58.9 66 SSW 2 G 13 29.79 1008.9 0.00
18 04:00 71.9 57.3 60 SW 2 G 12 29.81 1009.5 0.00
18 03:00 71.7 55.2 56 SSW 1 G 7 29.83 1010.3 0.00
18 02:00 71.2 53.2 74.9 67.3 53 SSW 1 G 8 29.85 1011.0 0.00
18 01:00 70.6 52.1 52 SW 0 G 9 29.88 1012.0 0.00
18 00:00 70.5 51.5 51 SSW 3 G 12 29.90 1012.6 0.00
17 23:00 70.3 50.8 50 SSW 0 G 6 29.90 1012.5 0.00
17 22:00 69.1 50.8 52 SSW 0 G 1 29.91 1012.9 0.00
17 21:00 68.8 53.0 57 Calm 29.91 1012.8 0.00
17 20:00 74.9 50.9 83.8 74.9 43 SSW 1 G 5 29.91 1012.9 0.00
17 19:00 76.8 58.9 54 SSW 0 G 2 29.92 1013.3 0.00
17 18:00 79.3 61.8 55 Calm 29.94 1013.8 0.00
17 17:00 81.4 61.6 51 SSW 0 G 5 29.95 1014.2 0.00
17 16:00 82.3 60.1 47 SW 1 G 7 29.96 1014.7 0.00
17 15:00 83.8 60.2 45 SW 0 G 8 29.98 1015.2 0.00
17 14:00 82.7 58.0 82.7 67.6 43 SSW 3 G 9 29.99 1015.5 0.00
17 13:00 82.2 57.5 43 SW 1 G 8 30.00 1016.0 0.00
17 12:00 78.0 59.0 52 W 1 G 11 30.02 1016.5 0.00
17 11:00 76.7 58.8 54 S 1 G 9 30.01 1016.4 0.00
17 10:00 76.7 62.3 61 Calm 30.02 1016.7 0.00
17 09:00 72.4 58.2 61 SSW 0 G 7 30.05 1017.5 0.00
17 08:00 67.6 57.5 67.6 51.0 70 SW 0 G 1 30.04 1017.2 0.00
17 07:00 57.9 55.6 92 WSW 0 G 4 30.01 1016.4 0.00
17 06:00 51.2 49.5 94 Calm 30.00 1015.8 0.00
17 05:00 51.4 49.2 92 Calm 29.99 1015.6 0.00
17 04:00 52.1 49.8 92 Calm 29.96 1014.6 0.00
17 03:00 53.1 50.5 91 Calm 29.96 1014.7 0.00
17 02:00 53.6 50.4 68.5 53.6 89 Calm 29.97 1014.8 0.00
17 01:00 55.0 50.9 86 Calm 29.96 1014.5 0.00
17 00:00 56.3 51.2 83 Calm 29.95 1014.4 0.00
16 23:00 58.3 52.2 80 Calm 29.95 1014.4 0.00
16 22:00 60.0 52.8 77 Calm 29.96 1014.7 0.00
16 21:00 60.2 51.9 74 Calm 29.93 1013.6 0.00
16 20:00 68.5 55.9 80.3 68.5 64 Calm 29.92 1013.1 0.00
16 19:00 74.2 47.7 39 Calm 29.90 1012.7 0.00
16 18:00 76.3 52.2 43 NW 0 G 1 29.90 1012.5 0.00
16 17:00 78.6 51.6 39 Calm 29.89 1012.3 0.00
16 16:00 79.2 56.7 46 WNW 0 G 7 29.90 1012.6 0.00
16 15:00 78.8 53.1 41 NW 0 G 5 29.91 1013.0 0.00
16 14:00 76.4 55.9 76.4 62.7 49 N 0 G 6 29.92 1013.4 0.00
16 13:00 75.5 58.2 55 NW 0 G 4 29.94 1013.9 0.00
16 12:00 73.4 57.7 58 W 0 G 6 29.95 1014.3 0.00
16 11:00 72.3 58.1 61 NW 0 G 6 29.96 1014.5 0.00
16 10:00 69.2 55.6 62 WNW 0 G 10 29.96 1014.5 0.00
16 09:00 67.1 56.2 68 WSW 0 G 4 29.97 1015.0 0.00
16 08:00 62.7 53.9 62.7 50.6 73 SW 0 G 8 29.96 1014.7 0.00
16 07:00 59.4 52.2 77 WSW 1 G 5 29.97 1014.8 0.00

Data generated by WxSolution Version 1.9.0.6, Build 2017.01.14.


 
 
Current Radar Loop:

Copyright © WestfordWeather.net 2007-2018. All rights reserved.